createdAt,value
2018-05-19T00:00:22.023Z,1011.74
2018-05-19T00:01:22.019Z,1011.73
2018-05-19T00:02:22.017Z,1011.79
2018-05-19T00:03:22.013Z,1011.76
2018-05-19T00:04:22.010Z,1011.76
2018-05-19T00:05:22.007Z,1011.76
2018-05-19T00:06:22.004Z,1011.79
2018-05-19T00:07:22.001Z,1011.76
2018-05-19T00:08:21.999Z,1011.77
2018-05-19T00:09:21.998Z,1011.82
2018-05-19T00:10:21.993Z,1011.81
2018-05-19T00:11:21.990Z,1011.82
2018-05-19T00:12:21.989Z,1011.79
2018-05-19T00:13:21.984Z,1011.81
2018-05-19T00:14:21.982Z,1011.77
2018-05-19T00:15:21.982Z,1011.76
2018-05-19T00:16:21.977Z,1011.73
2018-05-19T00:17:21.975Z,1011.75
2018-05-19T00:18:21.969Z,1011.74
2018-05-19T00:19:21.968Z,1011.72
2018-05-19T00:20:21.968Z,1011.72
2018-05-19T00:21:21.959Z,1011.70
2018-05-19T00:22:21.958Z,1011.69
2018-05-19T00:23:21.957Z,1011.67
2018-05-19T00:24:21.955Z,1011.64
2018-05-19T00:25:21.949Z,1011.69
2018-05-19T00:26:21.947Z,1011.70
2018-05-19T00:27:21.944Z,1011.73
2018-05-19T00:28:21.942Z,1011.72
2018-05-19T00:29:21.938Z,1011.68
2018-05-19T00:30:21.934Z,1011.70
2018-05-19T00:31:21.933Z,1011.69
2018-05-19T00:32:21.930Z,1011.77
2018-05-19T00:33:21.927Z,1011.69
2018-05-19T00:34:21.977Z,1011.72
2018-05-19T00:35:21.919Z,1011.72
2018-05-19T00:36:21.927Z,1011.68
2018-05-19T00:37:21.915Z,1011.70
2018-05-19T00:38:21.912Z,1011.69
2018-05-19T00:39:21.910Z,1011.70
2018-05-19T00:40:21.906Z,1011.65
2018-05-19T00:41:21.903Z,1011.71
2018-05-19T00:42:21.900Z,1011.70
2018-05-19T00:43:21.898Z,1011.71
2018-05-19T00:44:21.896Z,1011.74
2018-05-19T00:45:21.892Z,1011.71
2018-05-19T00:46:21.889Z,1011.70
2018-05-19T00:47:21.885Z,1011.72
2018-05-19T00:48:21.882Z,1011.71
2018-05-19T00:49:21.882Z,1011.71
2018-05-19T00:50:21.877Z,1011.70
2018-05-19T00:51:21.875Z,1011.72
2018-05-19T00:52:21.869Z,1011.69
2018-05-19T00:53:21.867Z,1011.70
2018-05-19T00:54:21.864Z,1011.70
2018-05-19T00:55:21.861Z,1011.67
2018-05-19T00:56:21.858Z,1011.68
2018-05-19T00:57:21.854Z,1011.66
2018-05-19T00:58:21.851Z,1011.66
2018-05-19T00:59:21.848Z,1011.63
2018-05-19T01:00:21.847Z,1011.66
2018-05-19T01:01:21.841Z,1011.66
2018-05-19T01:02:21.839Z,1011.67
2018-05-19T01:03:21.836Z,1011.70
2018-05-19T01:04:21.833Z,1011.68
2018-05-19T01:05:21.829Z,1011.71
2018-05-19T01:06:21.826Z,1011.68
2018-05-19T01:07:21.823Z,1011.69
2018-05-19T01:08:21.821Z,1011.71
2018-05-19T01:09:21.817Z,1011.70
2018-05-19T01:10:21.813Z,1011.66
2018-05-19T01:11:21.810Z,1011.65
2018-05-19T01:12:21.807Z,1011.68
2018-05-19T01:13:21.806Z,1011.66
2018-05-19T01:14:21.800Z,1011.64
2018-05-19T01:15:21.796Z,1011.65
2018-05-19T01:16:21.818Z,1011.65
2018-05-19T01:17:21.788Z,1011.61
2018-05-19T01:18:21.786Z,1011.65
2018-05-19T01:19:21.787Z,1011.65
2018-05-19T01:20:21.781Z,1011.65
2018-05-19T01:21:21.775Z,1011.65
2018-05-19T01:22:21.773Z,1011.66
2018-05-19T01:23:21.769Z,1011.63
2018-05-19T01:24:21.767Z,1011.64
2018-05-19T01:25:21.763Z,1011.67
2018-05-19T01:26:21.759Z,1011.67
2018-05-19T01:27:21.756Z,1011.70
2018-05-19T01:28:21.755Z,1011.71
2018-05-19T01:29:21.749Z,1011.67
2018-05-19T01:30:21.794Z,1011.67
2018-05-19T01:31:21.742Z,1011.67
2018-05-19T01:32:21.739Z,1011.69
2018-05-19T01:33:21.734Z,1011.66
2018-05-19T01:34:21.732Z,1011.67
2018-05-19T01:35:21.731Z,1011.65
2018-05-19T01:36:21.725Z,1011.68
2018-05-19T01:37:21.721Z,1011.62
2018-05-19T01:38:21.716Z,1011.68
2018-05-19T01:39:21.714Z,1011.74
2018-05-19T01:40:21.709Z,1011.67
2018-05-19T01:41:21.705Z,1011.69
2018-05-19T01:42:21.711Z,1011.65
2018-05-19T01:43:21.699Z,1011.69
2018-05-19T01:44:21.699Z,1011.72
2018-05-19T01:45:21.691Z,1011.66
2018-05-19T01:46:21.688Z,1011.73
2018-05-19T01:47:21.685Z,1011.69
2018-05-19T01:48:21.682Z,1011.68
2018-05-19T01:49:21.677Z,1011.66
2018-05-19T01:50:21.673Z,1011.68
2018-05-19T01:51:21.673Z,1011.66
2018-05-19T01:52:21.666Z,1011.66
2018-05-19T01:53:21.663Z,1011.69
2018-05-19T01:54:21.661Z,1011.66
2018-05-19T01:55:21.654Z,1011.67
2018-05-19T01:56:21.652Z,1011.68
2018-05-19T01:57:21.648Z,1011.66
2018-05-19T01:58:21.644Z,1011.63
2018-05-19T01:59:21.642Z,1011.63
2018-05-19T02:00:21.637Z,1011.67
2018-05-19T02:01:21.632Z,1011.63
2018-05-19T02:02:21.629Z,1011.68
2018-05-19T02:03:21.626Z,1011.66
2018-05-19T02:04:21.624Z,1011.64
2018-05-19T02:05:21.620Z,1011.64
2018-05-19T02:06:21.613Z,1011.64
2018-05-19T02:07:21.611Z,1011.62
2018-05-19T02:08:21.607Z,1011.65
2018-05-19T02:09:21.602Z,1011.67
2018-05-19T02:10:21.599Z,1011.65
2018-05-19T02:11:21.596Z,1011.66
2018-05-19T02:12:21.593Z,1011.67
2018-05-19T02:13:21.588Z,1011.63
2018-05-19T02:14:21.584Z,1011.64
2018-05-19T02:15:21.581Z,1011.62
2018-05-19T02:16:21.577Z,1011.65
2018-05-19T02:17:21.573Z,1011.63
2018-05-19T02:18:21.568Z,1011.61
2018-05-19T02:19:21.564Z,1011.63
2018-05-19T02:20:21.561Z,1011.61
2018-05-19T02:21:21.560Z,1011.62
2018-05-19T02:22:21.553Z,1011.64
2018-05-19T02:23:21.549Z,1011.63
2018-05-19T02:24:21.545Z,1011.63
2018-05-19T02:25:21.541Z,1011.67
2018-05-19T02:26:21.538Z,1011.65
2018-05-19T02:27:21.534Z,1011.69
2018-05-19T02:28:21.530Z,1011.67
2018-05-19T02:29:21.526Z,1011.67
2018-05-19T02:30:21.521Z,1011.67
2018-05-19T02:31:21.517Z,1011.73
2018-05-19T02:32:21.515Z,1011.66
2018-05-19T02:33:21.512Z,1011.66
2018-05-19T02:34:21.508Z,1011.64
2018-05-19T02:35:21.503Z,1011.66
2018-05-19T02:36:21.499Z,1011.68
2018-05-19T02:37:21.495Z,1011.66
2018-05-19T02:38:21.578Z,1011.67
2018-05-19T02:39:21.489Z,1011.67
2018-05-19T02:40:21.484Z,1011.63
2018-05-19T02:41:21.480Z,1011.58
2018-05-19T02:42:21.474Z,1011.63
2018-05-19T02:43:21.470Z,1011.64
2018-05-19T02:44:21.467Z,1011.64
2018-05-19T02:45:21.465Z,1011.61
2018-05-19T02:46:21.460Z,1011.62
2018-05-19T02:47:21.454Z,1011.55
2018-05-19T02:48:21.459Z,1011.64
2018-05-19T02:49:21.454Z,1011.62
2018-05-19T02:50:21.442Z,1011.62
2018-05-19T02:51:21.438Z,1011.59
2018-05-19T02:52:21.435Z,1011.57
2018-05-19T02:53:21.431Z,1011.53
2018-05-19T02:54:21.430Z,1011.58
2018-05-19T02:55:21.427Z,1011.56
2018-05-19T02:56:21.419Z,1011.53
2018-05-19T02:57:21.414Z,1011.57
2018-05-19T02:58:21.412Z,1011.55
2018-05-19T02:59:21.406Z,1011.59
2018-05-19T03:00:21.403Z,1011.55
2018-05-19T03:01:21.397Z,1011.56
2018-05-19T03:02:21.394Z,1011.59
2018-05-19T03:03:21.390Z,1011.58
2018-05-19T03:04:21.386Z,1011.59
2018-05-19T03:05:21.382Z,1011.60
2018-05-19T03:06:21.379Z,1011.57
2018-05-19T03:07:21.373Z,1011.60
2018-05-19T03:08:21.369Z,1011.59
2018-05-19T03:09:21.364Z,1011.56
2018-05-19T03:10:21.361Z,1011.57
2018-05-19T03:11:21.357Z,1011.54
2018-05-19T03:12:21.354Z,1011.57
2018-05-19T03:13:21.348Z,1011.57
2018-05-19T03:14:21.344Z,1011.59
2018-05-19T03:15:21.341Z,1011.57
2018-05-19T03:16:21.335Z,1011.58
2018-05-19T03:17:21.333Z,1011.56
2018-05-19T03:18:21.328Z,1011.57
2018-05-19T03:19:21.327Z,1011.57
2018-05-19T03:20:21.320Z,1011.57
2018-05-19T03:21:21.314Z,1011.53
2018-05-19T03:22:21.310Z,1011.53
2018-05-19T03:23:21.309Z,1011.53
2018-05-19T03:24:21.303Z,1011.54
2018-05-19T03:25:21.298Z,1011.51
2018-05-19T03:26:21.293Z,1011.51
2018-05-19T03:27:21.290Z,1011.50
2018-05-19T03:28:21.285Z,1011.53
2018-05-19T03:29:21.280Z,1011.53
2018-05-19T03:30:21.277Z,1011.51
2018-05-19T03:31:21.274Z,1011.50
2018-05-19T03:32:21.270Z,1011.52
2018-05-19T03:33:21.264Z,1011.53
2018-05-19T03:34:21.259Z,1011.50
2018-05-19T03:35:21.256Z,1011.56
2018-05-19T03:36:21.253Z,1011.51
2018-05-19T03:37:21.248Z,1011.53
2018-05-19T03:38:21.243Z,1011.54
2018-05-19T03:39:21.240Z,1011.56
2018-05-19T03:40:21.236Z,1011.55
2018-05-19T03:41:21.231Z,1011.50
2018-05-19T03:42:21.227Z,1011.55
2018-05-19T03:43:21.222Z,1011.51
2018-05-19T03:44:21.220Z,1011.51
2018-05-19T03:45:21.217Z,1011.58
2018-05-19T03:46:21.210Z,1011.56
2018-05-19T03:47:21.205Z,1011.55
2018-05-19T03:48:21.201Z,1011.60
2018-05-19T03:49:21.196Z,1011.59
2018-05-19T03:50:21.197Z,1011.62
2018-05-19T03:51:21.187Z,1011.64
2018-05-19T03:52:21.183Z,1011.65
2018-05-19T03:53:21.179Z,1011.65
2018-05-19T03:54:21.175Z,1011.66
2018-05-19T03:55:21.170Z,1011.69
2018-05-19T03:56:21.166Z,1011.73
2018-05-19T03:57:21.159Z,1011.76
2018-05-19T03:58:21.157Z,1011.69
2018-05-19T03:59:21.153Z,1011.71
2018-05-19T04:00:21.150Z,1011.71
2018-05-19T04:01:21.144Z,1011.71
2018-05-19T04:02:21.140Z,1011.75
2018-05-19T04:03:21.136Z,1011.81
2018-05-19T04:04:21.133Z,1011.79
2018-05-19T04:05:21.127Z,1011.80
2018-05-19T04:06:21.125Z,1011.84
2018-05-19T04:07:21.119Z,1011.80
2018-05-19T04:08:21.116Z,1011.82
2018-05-19T04:09:21.111Z,1011.86
2018-05-19T04:10:21.106Z,1011.85
2018-05-19T04:11:21.102Z,1011.83
2018-05-19T04:12:21.098Z,1011.88
2018-05-19T04:13:21.093Z,1011.84
2018-05-19T04:14:21.091Z,1011.86
2018-05-19T04:15:21.087Z,1011.84
2018-05-19T04:16:21.086Z,1011.86
2018-05-19T04:17:21.077Z,1011.85
2018-05-19T04:18:21.073Z,1011.84
2018-05-19T04:19:21.070Z,1011.83
2018-05-19T04:20:21.068Z,1011.88
2018-05-19T04:21:21.061Z,1011.87
2018-05-19T04:22:21.057Z,1011.88
2018-05-19T04:23:21.054Z,1011.85
2018-05-19T04:24:21.050Z,1011.87
2018-05-19T04:25:21.045Z,1011.89
2018-05-19T04:26:21.043Z,1011.91
2018-05-19T04:27:21.039Z,1011.90
2018-05-19T04:28:21.034Z,1011.92
2018-05-19T04:29:21.030Z,1011.93
2018-05-19T04:30:21.029Z,1011.92
2018-05-19T04:31:21.022Z,1011.95
2018-05-19T04:32:21.020Z,1011.92
2018-05-19T04:33:21.015Z,1011.92
2018-05-19T04:34:21.016Z,1011.88
2018-05-19T04:35:21.009Z,1011.88
2018-05-19T04:36:21.005Z,1011.89
2018-05-19T04:37:20.999Z,1011.88
2018-05-19T04:38:20.997Z,1011.87
2018-05-19T04:39:20.993Z,1011.89
2018-05-19T04:40:20.989Z,1011.90
2018-05-19T04:41:20.983Z,1011.87
2018-05-19T04:42:20.982Z,1011.91
2018-05-19T04:43:20.979Z,1011.90
2018-05-19T04:44:20.981Z,1011.87
2018-05-19T04:45:20.972Z,1011.90
2018-05-19T04:46:20.966Z,1011.90
2018-05-19T04:47:20.968Z,1011.92
2018-05-19T04:48:20.961Z,1011.96
2018-05-19T04:49:20.957Z,1011.94
2018-05-19T04:50:20.953Z,1011.94
2018-05-19T04:51:20.951Z,1011.98
2018-05-19T04:52:20.945Z,1011.96
2018-05-19T04:53:20.942Z,1011.96
2018-05-19T04:54:20.940Z,1011.94
2018-05-19T04:55:20.936Z,1011.96
2018-05-19T04:56:20.936Z,1011.96
2018-05-19T04:57:20.929Z,1011.99
2018-05-19T04:58:20.926Z,1012.00
2018-05-19T04:59:20.924Z,1012.00
2018-05-19T05:00:20.920Z,1012.04
2018-05-19T05:01:20.917Z,1012.02
2018-05-19T05:02:20.916Z,1012.05
2018-05-19T05:03:20.912Z,1012.04
2018-05-19T05:04:20.909Z,1012.05
2018-05-19T05:05:20.904Z,1012.05
2018-05-19T05:06:20.901Z,1012.06
2018-05-19T05:07:20.899Z,1012.07
2018-05-19T05:08:20.896Z,1012.07
2018-05-19T05:09:20.896Z,1012.07
2018-05-19T05:10:20.889Z,1012.09
2018-05-19T05:11:20.894Z,1012.10
2018-05-19T05:12:20.885Z,1012.12
2018-05-19T05:13:20.881Z,1012.14
2018-05-19T05:14:20.879Z,1012.17
2018-05-19T05:15:20.876Z,1012.19
2018-05-19T05:16:20.882Z,1012.22
2018-05-19T05:17:20.876Z,1012.21
2018-05-19T05:18:20.868Z,1012.25
2018-05-19T05:19:20.867Z,1012.26
2018-05-19T05:20:20.865Z,1012.24
2018-05-19T05:21:20.896Z,1012.31
2018-05-19T05:22:20.862Z,1012.30
2018-05-19T05:23:20.858Z,1012.36
2018-05-19T05:24:20.856Z,1012.33
2018-05-19T05:25:20.856Z,1012.34
2018-05-19T05:26:20.851Z,1012.36
2018-05-19T05:27:20.849Z,1012.34
2018-05-19T05:28:20.847Z,1012.34
2018-05-19T05:29:20.844Z,1012.35
2018-05-19T05:30:20.841Z,1012.34
2018-05-19T05:31:20.841Z,1012.34
2018-05-19T05:32:20.839Z,1012.36
2018-05-19T05:33:20.837Z,1012.38
2018-05-19T05:34:20.834Z,1012.37
2018-05-19T05:35:20.837Z,1012.43
2018-05-19T05:36:20.833Z,1012.35
2018-05-19T05:37:20.830Z,1012.41
2018-05-19T05:38:20.828Z,1012.35
2018-05-19T05:39:20.827Z,1012.38
2018-05-19T05:40:20.825Z,1012.33
2018-05-19T05:41:20.821Z,1012.35
2018-05-19T05:42:20.822Z,1012.38
2018-05-19T05:43:20.820Z,1012.42
2018-05-19T05:44:20.819Z,1012.44
2018-05-19T05:45:20.817Z,1012.43
2018-05-19T05:46:20.816Z,1012.47
2018-05-19T05:47:20.815Z,1012.48
2018-05-19T05:48:20.814Z,1012.45
2018-05-19T05:49:20.813Z,1012.47
2018-05-19T05:50:20.811Z,1012.49
2018-05-19T05:51:20.812Z,1012.47
2018-05-19T05:52:20.812Z,1012.51
2018-05-19T05:53:20.807Z,1012.50
2018-05-19T05:54:20.811Z,1012.49
2018-05-19T05:55:20.807Z,1012.55
2018-05-19T05:56:20.806Z,1012.51
2018-05-19T05:57:20.805Z,1012.53
2018-05-19T05:58:20.805Z,1012.53
2018-05-19T05:59:20.804Z,1012.55
2018-05-19T06:00:20.803Z,1012.55
2018-05-19T06:01:20.801Z,1012.60
2018-05-19T06:02:20.801Z,1012.56
2018-05-19T06:03:20.801Z,1012.60
2018-05-19T06:04:20.804Z,1012.60
2018-05-19T06:05:20.800Z,1012.64
2018-05-19T06:06:20.888Z,1012.65
2018-05-19T06:07:20.798Z,1012.69
2018-05-19T06:08:20.803Z,1012.68
2018-05-19T06:09:20.797Z,1012.69
2018-05-19T06:10:20.796Z,1012.76
2018-05-19T06:11:20.798Z,1012.70
2018-05-19T06:12:20.878Z,1012.70
2018-05-19T06:13:20.796Z,1012.75
2018-05-19T06:14:20.796Z,1012.80
2018-05-19T06:15:20.795Z,1012.80
2018-05-19T06:16:20.795Z,1012.85
2018-05-19T06:17:20.795Z,1012.88
2018-05-19T06:18:20.795Z,1012.87
2018-05-19T06:19:20.795Z,1012.87
2018-05-19T06:20:20.795Z,1012.94
2018-05-19T06:21:20.795Z,1012.92
2018-05-19T06:22:20.795Z,1012.90
2018-05-19T06:23:20.796Z,1012.89
2018-05-19T06:24:20.796Z,1012.89
2018-05-19T06:25:20.795Z,1012.89
2018-05-19T06:26:20.795Z,1012.87
2018-05-19T06:27:20.797Z,1012.87
2018-05-19T06:28:20.797Z,1012.91
2018-05-19T06:29:20.797Z,1012.88
2018-05-19T06:30:20.797Z,1012.92
2018-05-19T06:31:20.801Z,1012.91
2018-05-19T06:32:20.799Z,1012.87
2018-05-19T06:33:20.799Z,1012.94
2018-05-19T06:34:20.801Z,1012.95
2018-05-19T06:35:20.801Z,1012.95
2018-05-19T06:36:20.807Z,1012.96
2018-05-19T06:37:20.802Z,1012.99
2018-05-19T06:38:20.804Z,1012.95
2018-05-19T06:39:20.805Z,1012.94
2018-05-19T06:40:20.808Z,1012.96
2018-05-19T06:41:20.807Z,1012.95
2018-05-19T06:42:20.808Z,1012.95
2018-05-19T06:43:20.810Z,1012.96
2018-05-19T06:44:20.811Z,1012.97
2018-05-19T06:45:20.812Z,1012.94
2018-05-19T06:46:20.820Z,1013.00
2018-05-19T06:47:20.815Z,1012.99
2018-05-19T06:48:20.863Z,1013.04
2018-05-19T06:49:20.818Z,1013.00
2018-05-19T06:50:20.819Z,1013.02
2018-05-19T06:51:20.822Z,1013.06
2018-05-19T06:52:20.824Z,1013.03
2018-05-19T06:53:20.824Z,1013.05
2018-05-19T06:54:20.826Z,1013.09
2018-05-19T06:55:20.828Z,1013.08
2018-05-19T06:56:20.830Z,1013.07
2018-05-19T06:57:20.831Z,1013.06
2018-05-19T06:58:20.832Z,1013.11
2018-05-19T06:59:20.835Z,1013.12
2018-05-19T07:00:20.837Z,1013.16
2018-05-19T07:01:20.838Z,1013.17
2018-05-19T07:02:20.840Z,1013.19
2018-05-19T07:03:20.842Z,1013.11
2018-05-19T07:04:20.843Z,1013.05
2018-05-19T07:05:20.849Z,1013.12
2018-05-19T07:06:20.848Z,1013.15
2018-05-19T07:07:20.849Z,1013.19
2018-05-19T07:08:20.851Z,1013.18
2018-05-19T07:09:20.852Z,1013.18
2018-05-19T07:10:20.854Z,1013.17
2018-05-19T07:11:20.856Z,1013.17
2018-05-19T07:12:20.857Z,1013.18
2018-05-19T07:13:20.859Z,1013.20
2018-05-19T07:14:20.864Z,1013.16
2018-05-19T07:15:20.864Z,1013.18
2018-05-19T07:16:20.865Z,1013.16
2018-05-19T07:17:20.868Z,1013.23
2018-05-19T07:18:20.869Z,1013.18
2018-05-19T07:19:20.873Z,1013.18
2018-05-19T07:20:20.875Z,1013.16
2018-05-19T07:21:20.877Z,1013.21
2018-05-19T07:22:20.882Z,1013.21
2018-05-19T07:23:20.882Z,1013.27
2018-05-19T07:24:20.884Z,1013.24
2018-05-19T07:25:20.887Z,1013.22
2018-05-19T07:26:20.890Z,1013.21
2018-05-19T07:27:20.940Z,1013.23
2018-05-19T07:28:20.896Z,1013.22
2018-05-19T07:29:20.905Z,1013.20
2018-05-19T07:30:20.901Z,1013.17
2018-05-19T07:31:20.905Z,1013.18
2018-05-19T07:32:20.908Z,1013.18
2018-05-19T07:33:20.910Z,1013.18
2018-05-19T07:34:20.915Z,1013.17
2018-05-19T07:35:20.917Z,1013.12
2018-05-19T07:36:20.922Z,1013.08
2018-05-19T07:37:20.925Z,1013.11
2018-05-19T07:38:20.928Z,1013.12
2018-05-19T07:39:20.933Z,1013.26
2018-05-19T07:40:20.937Z,1013.60
2018-05-19T07:41:20.939Z,1013.79
2018-05-19T07:42:20.943Z,1013.87
2018-05-19T07:43:20.949Z,1013.97
2018-05-19T07:44:20.955Z,1013.95
2018-05-19T07:45:20.967Z,1013.97
2018-05-19T07:46:20.965Z,1014.02
2018-05-19T07:47:20.972Z,1014.08
2018-05-19T07:48:20.979Z,1014.04
2018-05-19T07:49:20.985Z,1014.03
2018-05-19T07:50:20.996Z,1014.03
2018-05-19T07:51:21.006Z,1014.04
2018-05-19T07:52:21.009Z,1014.04
2018-05-19T07:53:21.018Z,1013.87
2018-05-19T07:54:21.026Z,1013.97
2018-05-19T07:55:21.037Z,1013.98
2018-05-19T07:56:21.046Z,1013.98
2018-05-19T07:57:21.055Z,1014.04
2018-05-19T07:58:21.088Z,1014.01
2018-05-19T07:59:21.075Z,1013.96
2018-05-19T08:00:21.087Z,1014.06
2018-05-19T08:01:21.097Z,1014.06
2018-05-19T08:02:21.107Z,1014.06
2018-05-19T08:03:21.119Z,1014.04
2018-05-19T08:04:21.204Z,1014.07
2018-05-19T08:05:21.143Z,1014.06
2018-05-19T08:06:21.153Z,1013.97
2018-05-19T08:07:21.165Z,1013.98
2018-05-19T08:08:21.179Z,1013.97
2018-05-19T08:09:21.190Z,1013.98
2018-05-19T08:10:21.202Z,1013.96
2018-05-19T08:11:21.216Z,1013.96
2018-05-19T08:12:21.319Z,1014.00
2018-05-19T08:13:21.241Z,1013.96
2018-05-19T08:14:21.255Z,1014.00
2018-05-19T08:15:21.268Z,1013.95
2018-05-19T08:16:21.281Z,1013.92
2018-05-19T08:17:21.293Z,1013.94
2018-05-19T08:18:21.308Z,1013.84
2018-05-19T08:19:21.320Z,1013.60
2018-05-19T08:20:21.364Z,1013.87
2018-05-19T08:21:21.345Z,1013.64
2018-05-19T08:22:21.359Z,1013.74
2018-05-19T08:23:21.375Z,1013.67
2018-05-19T08:24:21.386Z,1013.52
2018-05-19T08:25:21.399Z,1013.43
2018-05-19T08:26:21.412Z,1013.63
2018-05-19T08:27:21.424Z,1013.48
2018-05-19T08:28:21.534Z,1013.40
2018-05-19T08:29:21.450Z,1013.35
2018-05-19T08:30:21.481Z,1013.32
2018-05-19T08:31:21.476Z,1013.42
2018-05-19T08:32:21.488Z,1013.55
2018-05-19T08:33:21.504Z,1013.51
2018-05-19T08:34:21.513Z,1013.38
2018-05-19T08:35:21.526Z,1013.50
2018-05-19T08:36:21.539Z,1013.37
2018-05-19T08:37:21.559Z,1013.52
2018-05-19T08:38:21.563Z,1013.51
2018-05-19T08:39:21.575Z,1013.40
2018-05-19T08:40:21.587Z,1013.45
2018-05-19T08:41:21.598Z,1013.54
2018-05-19T08:42:21.610Z,1013.46
2018-05-19T08:43:21.622Z,1013.48
2018-05-19T08:44:21.634Z,1013.76
2018-05-19T08:45:21.645Z,1013.77
2018-05-19T08:46:21.656Z,1013.65
2018-05-19T08:47:21.667Z,1013.42
2018-05-19T08:48:21.679Z,1013.64
2018-05-19T08:49:21.688Z,1013.46
2018-05-19T08:50:21.701Z,1013.76
2018-05-19T08:51:21.711Z,1013.37
2018-05-19T08:52:21.724Z,1013.40
2018-05-19T08:53:21.736Z,1013.38
2018-05-19T08:54:21.746Z,1013.40
2018-05-19T08:55:21.758Z,1013.48
2018-05-19T08:56:21.769Z,1013.28
2018-05-19T08:57:21.780Z,1013.27
2018-05-19T08:58:21.790Z,1013.23
2018-05-19T08:59:21.802Z,1013.26
2018-05-19T09:00:21.816Z,1013.27
2018-05-19T09:01:21.825Z,1013.31
2018-05-19T09:02:21.844Z,1013.28
2018-05-19T09:03:21.845Z,1013.33
2018-05-19T09:04:21.854Z,1013.40
2018-05-19T09:05:21.865Z,1013.38
2018-05-19T09:06:21.875Z,1013.48
2018-05-19T09:07:21.885Z,1013.62
2018-05-19T09:08:21.896Z,1013.77
2018-05-19T09:09:21.905Z,1013.69
2018-05-19T09:10:21.919Z,1013.49
2018-05-19T09:11:21.925Z,1013.30
2018-05-19T09:12:21.943Z,1013.31
2018-05-19T09:13:21.945Z,1013.32
2018-05-19T09:14:21.956Z,1013.19
2018-05-19T09:15:21.967Z,1013.20
2018-05-19T09:16:21.977Z,1013.17
2018-05-19T09:17:21.987Z,1013.16
2018-05-19T09:18:21.998Z,1013.18
2018-05-19T09:19:22.009Z,1013.15
2018-05-19T09:20:22.022Z,1013.14
2018-05-19T09:21:22.030Z,1013.16
2018-05-19T09:22:22.039Z,1013.23
2018-05-19T09:23:22.048Z,1013.32
2018-05-19T09:24:22.058Z,1013.77
2018-05-19T09:25:22.065Z,1013.78
2018-05-19T09:26:22.075Z,1013.75
2018-05-19T09:27:22.085Z,1013.77
2018-05-19T09:28:22.105Z,1013.83
2018-05-19T09:29:22.103Z,1013.87
2018-05-19T09:30:22.113Z,1013.79
2018-05-19T09:31:22.123Z,1013.87
2018-05-19T09:32:22.133Z,1013.39
2018-05-19T09:33:22.142Z,1013.22
2018-05-19T09:34:22.154Z,1013.31
2018-05-19T09:35:22.164Z,1013.26
2018-05-19T09:36:22.175Z,1013.83
2018-05-19T09:37:22.185Z,1013.88
2018-05-19T09:38:22.194Z,1013.85
2018-05-19T09:39:22.205Z,1013.48
2018-05-19T09:40:22.217Z,1013.32
2018-05-19T09:41:22.227Z,1013.30
2018-05-19T09:42:22.239Z,1013.28
2018-05-19T09:43:22.248Z,1013.27
2018-05-19T09:44:22.259Z,1013.20
2018-05-19T09:45:22.269Z,1013.30
2018-05-19T09:46:22.280Z,1013.35
2018-05-19T09:47:22.383Z,1013.76
2018-05-19T09:48:22.300Z,1013.48
2018-05-19T09:49:22.308Z,1013.30
2018-05-19T09:50:22.319Z,1013.35
2018-05-19T09:51:22.330Z,1013.47
2018-05-19T09:52:22.339Z,1013.33
2018-05-19T09:53:22.347Z,1013.52
2018-05-19T09:54:22.356Z,1013.43
2018-05-19T09:55:22.366Z,1013.64
2018-05-19T09:56:22.376Z,1013.91
2018-05-19T09:57:22.384Z,1013.33
2018-05-19T09:58:22.395Z,1013.31
2018-05-19T09:59:22.484Z,1013.30
2018-05-19T10:00:22.413Z,1013.34
2018-05-19T10:01:22.422Z,1013.40
2018-05-19T10:02:22.432Z,1013.54
2018-05-19T10:03:22.440Z,1013.87
2018-05-19T10:04:22.450Z,1013.87
2018-05-19T10:05:22.458Z,1013.77
2018-05-19T10:06:22.468Z,1013.46
2018-05-19T10:07:22.476Z,1013.35
2018-05-19T10:08:22.486Z,1013.36
2018-05-19T10:09:22.499Z,1013.70
2018-05-19T10:10:22.504Z,1013.62
2018-05-19T10:11:22.513Z,1013.89
2018-05-19T10:12:22.526Z,1013.89
2018-05-19T10:13:22.531Z,1013.90
2018-05-19T10:14:22.540Z,1013.93
2018-05-19T10:15:22.552Z,1013.85
2018-05-19T10:16:22.561Z,1013.87
2018-05-19T10:17:22.627Z,1013.87
2018-05-19T10:18:22.581Z,1013.91
2018-05-19T10:19:22.591Z,1013.89
2018-05-19T10:20:22.601Z,1013.36
2018-05-19T10:21:22.611Z,1013.32
2018-05-19T10:22:22.622Z,1013.63
2018-05-19T10:23:22.633Z,1013.39
2018-05-19T10:24:22.644Z,1013.70
2018-05-19T10:25:22.656Z,1013.60
2018-05-19T10:26:22.665Z,1013.33
2018-05-19T10:27:22.676Z,1013.24
2018-05-19T10:28:22.766Z,1013.17
2018-05-19T10:29:22.697Z,1013.11
2018-05-19T10:30:22.707Z,1013.15
2018-05-19T10:31:22.718Z,1013.20
2018-05-19T10:32:22.727Z,1013.16
2018-05-19T10:33:22.737Z,1013.15
2018-05-19T10:34:22.747Z,1013.10
2018-05-19T10:35:22.792Z,1013.12
2018-05-19T10:36:22.767Z,1013.13
2018-05-19T10:37:22.781Z,1013.17
2018-05-19T10:38:22.784Z,1013.21
2018-05-19T10:39:22.794Z,1013.32
2018-05-19T10:40:22.803Z,1013.44
2018-05-19T10:41:22.812Z,1013.72
2018-05-19T10:42:22.819Z,1013.69
2018-05-19T10:43:22.832Z,1013.55
2018-05-19T10:44:22.837Z,1013.78
2018-05-19T10:45:22.844Z,1013.60
2018-05-19T10:46:22.853Z,1013.31
2018-05-19T10:47:22.862Z,1013.71
2018-05-19T10:48:22.872Z,1013.61
2018-05-19T10:49:22.880Z,1013.54
2018-05-19T10:50:22.889Z,1013.55
2018-05-19T10:51:22.898Z,1013.68
2018-05-19T10:52:22.909Z,1013.64
2018-05-19T10:53:22.916Z,1013.64
2018-05-19T10:54:22.925Z,1013.65
2018-05-19T10:55:22.934Z,1013.60
2018-05-19T10:56:22.945Z,1013.33
2018-05-19T10:57:22.954Z,1013.40
2018-05-19T10:58:22.964Z,1013.57
2018-05-19T10:59:22.973Z,1013.41
2018-05-19T11:00:22.984Z,1013.58
2018-05-19T11:01:22.993Z,1013.81
2018-05-19T11:02:23.003Z,1013.56
2018-05-19T11:03:23.018Z,1013.49
2018-05-19T11:04:23.023Z,1013.59
2018-05-19T11:05:23.033Z,1013.66
2018-05-19T11:06:23.042Z,1013.65
2018-05-19T11:07:23.053Z,1013.63
2018-05-19T11:08:23.063Z,1013.65
2018-05-19T11:09:23.072Z,1013.62
2018-05-19T11:10:23.081Z,1013.60
2018-05-19T11:11:23.090Z,1013.59
2018-05-19T11:12:23.101Z,1013.55
2018-05-19T11:13:23.111Z,1013.59
2018-05-19T11:14:23.121Z,1013.46
2018-05-19T11:15:23.133Z,1013.38
2018-05-19T11:16:23.142Z,1013.32
2018-05-19T11:17:23.149Z,1013.33
2018-05-19T11:18:23.161Z,1013.24
2018-05-19T11:19:23.170Z,1013.32
2018-05-19T11:20:23.181Z,1013.23
2018-05-19T11:21:23.188Z,1013.22
2018-05-19T11:22:23.197Z,1013.29
2018-05-19T11:23:23.208Z,1013.28
2018-05-19T11:24:23.219Z,1013.29
2018-05-19T11:25:23.285Z,1013.16
2018-05-19T11:26:23.236Z,1013.25
2018-05-19T11:27:23.243Z,1013.20
2018-05-19T11:28:23.254Z,1013.22
2018-05-19T11:29:23.263Z,1013.19
2018-05-19T11:30:23.272Z,1013.14
2018-05-19T11:31:23.281Z,1013.10
2018-05-19T11:32:23.289Z,1013.10
2018-05-19T11:33:23.297Z,1013.07
2018-05-19T11:34:23.306Z,1013.06
2018-05-19T11:35:23.315Z,1013.07
2018-05-19T11:36:23.323Z,1013.10
2018-05-19T11:37:23.330Z,1013.08
2018-05-19T11:38:23.341Z,1013.10
2018-05-19T11:39:23.347Z,1013.04
2018-05-19T11:40:23.355Z,1013.05
2018-05-19T11:41:23.362Z,1012.98
2018-05-19T11:42:23.370Z,1012.96
2018-05-19T11:43:23.377Z,1012.97
2018-05-19T11:44:23.386Z,1013.03
2018-05-19T11:45:23.393Z,1013.00
2018-05-19T11:46:23.401Z,1012.97
2018-05-19T11:47:23.410Z,1012.94
2018-05-19T11:48:23.416Z,1013.00
2018-05-19T11:49:23.423Z,1013.08
2018-05-19T11:50:23.428Z,1012.97
2018-05-19T11:51:23.438Z,1012.97
2018-05-19T11:52:23.445Z,1012.99
2018-05-19T11:53:23.451Z,1013.01
2018-05-19T11:54:23.459Z,1013.04
2018-05-19T11:55:23.468Z,1013.04
2018-05-19T11:56:23.475Z,1013.01
2018-05-19T11:57:23.482Z,1013.03
2018-05-19T11:58:23.488Z,1013.02
2018-05-19T11:59:23.496Z,1013.02
2018-05-19T12:00:23.503Z,1013.00
2018-05-19T12:01:23.509Z,1013.00
2018-05-19T12:02:23.516Z,1012.97
2018-05-19T12:03:23.524Z,1012.95
2018-05-19T12:04:23.531Z,1012.95
2018-05-19T12:05:23.537Z,1012.93